Time;durP1;ratioP1;P1;durP2;ratioP2;P2;SDS_P1;SDS_P2;PMS_P1;PMS_P2;Temp;Humidity;BMP_temperature;BMP_pressure;BME280_temperature;BME280_humidity;BME280_pressure;Samples;Min_cycle;Max_cycle;Signal;HPM_P1;HPM_P2
2023/03/16 00:01:06;;;;;;;2.80;2.50;;;19.20;49.80;;;;;;5034542;28;20233;-70
2023/03/16 00:03:33;;;;;;;2.97;2.67;;;19.20;49.90;;;;;;5053513;28;20186;-70
2023/03/16 00:05:59;;;;;;;3.00;2.47;;;19.20;49.80;;;;;;5034188;28;20222;-70
2023/03/16 00:08:25;;;;;;;3.17;2.25;;;19.20;49.80;;;;;;5034133;28;20218;-70
2023/03/16 00:10:53;;;;;;;2.35;2.15;;;19.20;49.80;;;;;;5034277;28;20202;-70
2023/03/16 00:13:25;;;;;;;2.90;2.63;;;19.20;49.80;;;;;;5034542;28;20240;-70
2023/03/16 00:16:03;;;;;;;2.67;2.47;;;19.20;49.80;;;;;;5034479;28;20217;-70
2023/03/16 00:18:37;;;;;;;2.70;2.50;;;19.20;49.80;;;;;;5033786;28;20195;-68
2023/03/16 00:21:05;;;;;;;2.60;2.40;;;19.20;49.80;;;;;;5033994;28;20229;-67
2023/03/16 00:23:34;;;;;;;3.75;2.70;;;19.20;49.80;;;;;;5034042;28;20194;-68
2023/03/16 00:26:06;;;;;;;3.05;2.55;;;19.10;49.70;;;;;;5034364;28;20182;-67
2023/03/16 00:28:34;;;;;;;2.83;2.40;;;19.20;49.80;;;;;;5033912;28;20194;-67
2023/03/16 00:31:07;;;;;;;2.65;2.10;;;19.10;49.70;;;;;;5033672;28;20202;-68
2023/03/16 00:33:36;;;;;;;2.50;2.30;;;19.10;49.70;;;;;;5067158;28;20341;-68
2023/03/16 00:36:08;;;;;;;2.50;2.30;;;19.20;49.80;;;;;;5034283;28;20187;-68
2023/03/16 00:38:44;;;;;;;2.38;2.10;;;19.10;49.70;;;;;;5033923;28;20191;-68
2023/03/16 00:41:13;;;;;;;2.40;2.20;;;19.10;49.80;;;;;;5033911;28;20217;-68
2023/03/16 00:43:42;;;;;;;2.70;2.50;;;19.10;49.80;;;;;;5033844;28;20175;-68
2023/03/16 00:46:12;;;;;;;2.50;2.30;;;19.10;49.80;;;;;;5034362;28;20194;-67
2023/03/16 00:48:41;;;;;;;2.63;2.33;;;19.10;49.70;;;;;;5033789;28;20269;-67
2023/03/16 00:51:12;;;;;;;2.67;2.30;;;19.10;49.80;;;;;;5033527;28;20202;-68
2023/03/16 00:53:40;;;;;;;3.45;2.33;;;19.10;49.80;;;;;;5033502;28;20285;-67
2023/03/16 00:56:07;;;;;;;2.88;2.50;;;19.10;49.80;;;;;;5034183;28;20190;-67
2023/03/16 00:58:37;;;;;;;3.35;2.30;;;19.10;50.30;;;;;;5033491;28;20244;-67
2023/03/16 01:01:05;;;;;;;2.55;2.30;;;19.10;49.70;;;;;;5034974;28;20218;-67
2023/03/16 01:03:32;;;;;;;2.20;2.00;;;19.10;49.80;;;;;;5033522;28;20285;-69
2023/03/16 01:06:03;;;;;;;2.13;2.03;;;19.10;49.70;;;;;;5035905;28;20273;-68
2023/03/16 01:08:29;;;;;;;2.08;1.88;;;19.10;49.80;;;;;;5033293;28;20224;-67
2023/03/16 01:10:55;;;;;;;2.20;1.95;;;19.10;49.80;;;;;;5033462;28;20759;-68
2023/03/16 01:13:21;;;;;;;2.08;1.85;;;19.10;49.80;;;;;;5033815;28;20600;-67
2023/03/16 01:15:50;;;;;;;2.38;2.17;;;19.10;49.70;;;;;;5033402;28;20197;-67
2023/03/16 01:18:16;;;;;;;2.22;2.03;;;19.10;49.70;;;;;;5033150;28;20631;-67
2023/03/16 01:20:49;;;;;;;2.00;1.83;;;19.10;49.80;;;;;;5033579;28;20232;-67
2023/03/16 01:23:17;;;;;;;2.40;2.20;;;19.10;50.20;;;;;;5033694;28;20191;-67
2023/03/16 01:25:43;;;;;;;2.15;1.90;;;19.10;49.70;;;;;;5033672;28;20214;-69
2023/03/16 01:28:09;;;;;;;2.10;1.90;;;19.10;49.70;;;;;;5033279;28;20182;-67
2023/03/16 01:30:35;;;;;;;1.95;1.80;;;19.10;49.70;;;;;;5033462;28;20294;-68
2023/03/16 01:33:01;;;;;;;2.40;2.20;;;19.10;49.70;;;;;;5037275;28;20198;-68
2023/03/16 01:35:28;;;;;;;2.13;1.70;;;19.20;49.70;;;;;;5037081;28;20195;-67
2023/03/16 01:37:54;;;;;;;2.10;1.88;;;19.10;49.70;;;;;;5037337;28;20193;-67
2023/03/16 01:40:23;;;;;;;2.70;2.42;;;19.10;49.70;;;;;;5037512;28;20242;-68
2023/03/16 01:43:03;;;;;;;2.75;2.33;;;19.10;49.70;;;;;;5037018;28;20191;-68
2023/03/16 01:46:04;;;;;;;2.20;2.00;;;19.10;49.60;;;;;;5037378;28;20727;-67
2023/03/16 01:49:04;;;;;;;1.88;1.77;;;19.10;49.60;;;;;;5037379;28;20244;-67
2023/03/16 01:51:43;;;;;;;2.28;2.08;;;19.10;49.70;;;;;;5036948;28;20202;-67
2023/03/16 01:54:14;;;;;;;3.15;2.30;;;19.10;49.60;;;;;;5036847;28;20189;-67
2023/03/16 01:56:54;;;;;;;2.35;2.15;;;19.10;49.60;;;;;;5036446;28;20179;-68
2023/03/16 01:59:26;;;;;;;2.53;2.33;;;19.10;49.60;;;;;;5049973;28;20194;-68
2023/03/16 02:01:52;;;;;;;2.50;2.15;;;19.10;50.20;;;;;;5036702;28;20201;-69
2023/03/16 02:05:03;;;;;;;2.00;1.80;;;19.10;49.60;;;;;;5036358;28;20297;-67
2023/03/16 02:07:35;;;;;;;2.22;1.98;;;19.10;49.60;;;;;;5036442;28;20190;-68
2023/03/16 02:10:05;;;;;;;1.65;1.55;;;19.10;49.60;;;;;;5069853;28;20304;-68
2023/03/16 02:12:31;;;;;;;1.90;1.80;;;19.10;49.60;;;;;;5036291;28;20194;-68
2023/03/16 02:14:59;;;;;;;2.00;1.80;;;19.10;49.60;;;;;;5036784;28;20186;-68
2023/03/16 02:17:32;;;;;;;2.13;2.00;;;19.10;49.60;;;;;;5036336;28;20668;-68
2023/03/16 02:20:30;;;;;;;2.30;2.10;;;19.10;50.20;;;;;;5036951;28;20237;-68
2023/03/16 02:22:56;;;;;;;2.00;1.90;;;19.10;49.70;;;;;;5036311;28;20194;-67
2023/03/16 02:26:13;;;;;;;3.25;1.83;;;19.10;49.60;;;;;;5036166;28;20723;-68
2023/03/16 02:29:10;;;;;;;1.80;1.70;;;19.10;49.60;;;;;;5039224;28;20198;-67
2023/03/16 02:31:36;;;;;;;2.15;1.70;;;19.10;49.60;;;;;;5036464;28;20259;-68
2023/03/16 02:34:03;;;;;;;2.35;2.15;;;19.10;49.60;;;;;;5036277;28;20194;-67
2023/03/16 02:36:30;;;;;;;2.03;1.88;;;19.10;49.60;;;;;;5036105;28;20320;-67
2023/03/16 02:38:56;;;;;;;2.22;2.03;;;19.10;49.60;;;;;;5035870;28;20194;-67
2023/03/16 02:41:23;;;;;;;2.08;1.88;;;19.10;49.50;;;;;;5035216;28;20218;-67
2023/03/16 02:44:13;;;;;;;2.20;2.00;;;19.10;49.50;;;;;;5035991;28;20249;-67
2023/03/16 02:46:42;;;;;;;1.80;1.70;;;19.10;49.50;;;;;;5035096;28;20187;-67
2023/03/16 02:49:21;;;;;;;1.67;1.58;;;19.10;50.20;;;;;;5035935;28;20189;-67
2023/03/16 02:51:47;;;;;;;1.70;1.60;;;19.10;50.20;;;;;;5035910;28;20186;-67
2023/03/16 02:54:13;;;;;;;1.52;1.42;;;19.10;49.50;;;;;;5035625;28;20236;-68
2023/03/16 02:56:40;;;;;;;1.85;1.75;;;19.10;49.50;;;;;;5035301;28;20273;-67
2023/03/16 02:59:08;;;;;;;1.80;1.70;;;19.10;49.50;;;;;;5035798;28;20190;-67
2023/03/16 03:01:35;;;;;;;1.88;1.77;;;19.10;49.50;;;;;;5035394;28;20194;-67
2023/03/16 03:04:04;;;;;;;2.60;1.95;;;19.10;49.50;;;;;;5035515;28;20692;-68
2023/03/16 03:06:31;;;;;;;2.22;2.00;;;19.10;49.50;;;;;;5035343;28;20182;-68
2023/03/16 03:08:59;;;;;;;2.20;2.00;;;19.10;49.50;;;;;;5035390;28;20187;-67
2023/03/16 03:11:25;;;;;;;2.38;2.17;;;19.10;49.50;;;;;;5035474;28;20257;-67
2023/03/16 03:13:51;;;;;;;2.22;2.05;;;19.20;49.60;;;;;;5035503;28;20206;-68
2023/03/16 03:16:21;;;;;;;1.85;1.75;;;19.10;49.50;;;;;;5035972;28;20193;-67
2023/03/16 03:18:48;;;;;;;2.15;2.05;;;19.10;49.50;;;;;;5035333;28;20175;-67
2023/03/16 03:21:15;;;;;;;1.90;1.80;;;19.10;49.50;;;;;;5035132;28;20209;-67
2023/03/16 03:23:45;;;;;;;1.80;1.70;;;19.10;49.50;;;;;;5035120;28;20286;-67
2023/03/16 03:26:14;;;;;;;1.52;1.42;;;19.10;49.50;;;;;;5035253;28;20226;-67
2023/03/16 03:28:41;;;;;;;1.77;1.67;;;19.10;50.10;;;;;;5040861;28;20237;-68
2023/03/16 03:31:19;;;;;;;1.70;1.60;;;19.10;49.50;;;;;;5034900;28;20210;-67
2023/03/16 03:33:44;;;;;;;1.55;1.45;;;19.10;49.50;;;;;;5034914;28;20240;-67
2023/03/16 03:36:11;;;;;;;1.70;1.60;;;19.10;49.50;;;;;;5035009;28;20198;-67
2023/03/16 03:38:38;;;;;;;1.95;1.60;;;19.10;49.40;;;;;;5051084;28;20186;-67
2023/03/16 03:41:06;;;;;;;1.70;1.60;;;19.10;49.40;;;;;;5068691;22;20300;-69
2023/03/16 03:43:34;;;;;;;1.38;1.27;;;19.10;49.40;;;;;;5051702;28;20178;-70
2023/03/16 03:46:02;;;;;;;1.80;1.70;;;19.10;49.40;;;;;;5068678;28;20202;-70
2023/03/16 03:48:30;;;;;;;1.80;1.70;;;19.10;49.40;;;;;;5052026;28;20204;-69
2023/03/16 03:50:57;;;;;;;1.83;1.73;;;19.10;49.40;;;;;;5048466;28;20211;-69
2023/03/16 03:53:22;;;;;;;2.10;1.60;;;19.10;49.40;;;;;;5031672;28;20191;-68
2023/03/16 03:56:07;;;;;;;1.60;1.50;;;19.10;49.40;;;;;;5027287;28;20309;-70
2023/03/16 03:58:33;;;;;;;1.70;1.60;;;19.10;49.40;;;;;;5029202;28;20203;-69
2023/03/16 04:01:00;;;;;;;1.83;1.73;;;19.10;49.40;;;;;;5011981;28;20262;-69
2023/03/16 04:03:26;;;;;;;1.77;1.67;;;19.10;49.40;;;;;;5041392;28;20550;-69
2023/03/16 04:05:52;;;;;;;1.42;1.33;;;19.10;49.40;;;;;;5023081;28;20199;-69
2023/03/16 04:08:18;;;;;;;1.30;1.20;;;19.10;49.40;;;;;;5023225;28;20183;-69
2023/03/16 04:10:44;;;;;;;1.60;1.50;;;19.10;49.40;;;;;;5032635;28;20207;-69
2023/03/16 04:13:10;;;;;;;1.25;1.20;;;19.10;49.40;;;;;;5011871;28;20180;-69
2023/03/16 04:15:37;;;;;;;1.38;1.17;;;19.10;49.40;;;;;;5005568;28;20199;-69
2023/03/16 04:18:11;;;;;;;1.75;1.52;;;19.10;49.40;;;;;;5031174;28;20190;-69
2023/03/16 04:20:37;;;;;;;1.55;1.45;;;19.10;49.40;;;;;;5023058;28;20205;-69
2023/03/16 04:23:04;;;;;;;1.50;1.40;;;19.10;49.40;;;;;;5031162;28;20179;-69
2023/03/16 04:25:30;;;;;;;1.23;1.20;;;19.10;49.40;;;;;;5030952;28;20207;-69
2023/03/16 04:27:57;;;;;;;1.40;1.30;;;19.10;49.40;;;;;;5031630;28;20187;-69
2023/03/16 04:30:27;;;;;;;1.50;1.40;;;19.10;49.40;;;;;;5031612;28;20207;-69
2023/03/16 04:33:02;;;;;;;2.35;1.65;;;19.10;49.40;;;;;;5031361;28;20223;-69
2023/03/16 04:35:28;;;;;;;2.00;1.80;;;19.10;49.40;;;;;;5031448;28;20229;-70
2023/03/16 04:37:56;;;;;;;1.40;1.30;;;19.10;49.40;;;;;;5031081;28;20187;-69
2023/03/16 04:40:29;;;;;;;1.90;1.80;;;19.10;49.90;;;;;;5031524;28;20214;-69
2023/03/16 04:43:03;;;;;;;1.55;1.45;;;19.10;49.40;;;;;;5028239;28;20253;-69
2023/03/16 04:45:31;;;;;;;1.33;1.23;;;19.10;49.30;;;;;;5036385;28;20254;-69
2023/03/16 04:47:58;;;;;;;1.30;1.20;;;19.10;49.40;;;;;;5047605;28;20187;-70
2023/03/16 04:50:24;;;;;;;1.40;1.30;;;19.10;49.30;;;;;;5015069;28;20210;-69
2023/03/16 04:52:52;;;;;;;1.50;1.40;;;19.10;49.40;;;;;;5031117;28;20297;-70
2023/03/16 04:55:19;;;;;;;1.35;1.25;;;19.10;49.30;;;;;;5015435;28;20183;-69
2023/03/16 04:57:45;;;;;;;1.33;1.23;;;19.10;49.30;;;;;;5030945;28;20179;-69
2023/03/16 05:00:17;;;;;;;1.17;1.08;;;19.10;49.30;;;;;;5010631;28;20207;-69
2023/03/16 05:02:50;;;;;;;1.60;1.50;;;19.10;49.30;;;;;;5046128;28;20249;-69
2023/03/16 05:05:18;;;;;;;1.60;1.50;;;19.10;49.30;;;;;;5048381;28;20234;-69
2023/03/16 05:07:46;;;;;;;1.30;1.20;;;19.10;49.30;;;;;;5034786;28;20186;-69
2023/03/16 05:10:17;;;;;;;1.67;1.48;;;19.10;49.30;;;;;;5018639;28;20208;-69
2023/03/16 05:12:44;;;;;;;1.60;1.50;;;19.10;49.20;;;;;;5018438;28;20171;-69
2023/03/16 05:15:10;;;;;;;1.35;1.25;;;19.10;49.30;;;;;;5018537;28;20187;-69
2023/03/16 05:17:40;;;;;;;1.67;1.58;;;19.10;49.20;;;;;;5018616;28;20198;-69
2023/03/16 05:20:12;;;;;;;1.90;1.80;;;19.10;49.20;;;;;;5051393;28;20207;-69
2023/03/16 05:22:43;;;;;;;1.60;1.40;;;19.10;49.20;;;;;;5035274;28;20180;-69
2023/03/16 05:25:18;;;;;;;1.40;1.30;;;19.10;49.20;;;;;;5034674;28;20214;-69
2023/03/16 05:27:52;;;;;;;1.27;1.17;;;19.10;49.20;;;;;;5018545;28;20183;-70
2023/03/16 05:30:26;;;;;;;1.30;1.20;;;19.10;49.20;;;;;;5031834;28;20321;-69
2023/03/16 05:32:56;;;;;;;1.23;1.13;;;19.10;49.20;;;;;;5015095;28;20271;-70
2023/03/16 05:35:23;;;;;;;1.60;1.50;;;19.10;49.20;;;;;;5038515;28;20226;-70
2023/03/16 05:37:48;;;;;;;1.20;1.10;;;19.10;49.20;;;;;;5033405;28;20188;-70
2023/03/16 05:40:18;;;;;;;1.40;1.30;;;19.10;49.20;;;;;;5018092;28;20678;-71
2023/03/16 05:42:55;;;;;;;1.45;1.35;;;19.10;49.20;;;;;;5034377;28;20183;-70
2023/03/16 05:45:22;;;;;;;1.50;1.40;;;19.10;49.20;;;;;;5017942;28;20215;-70
2023/03/16 05:47:58;;;;;;;1.95;1.77;;;19.10;49.20;;;;;;5034138;28;20179;-70
2023/03/16 05:50:25;;;;;;;2.05;1.85;;;19.10;49.20;;;;;;5022445;28;20211;-69
2023/03/16 05:52:51;;;;;;;1.70;1.60;;;19.10;49.20;;;;;;5016613;28;20188;-70
2023/03/16 05:55:20;;;;;;;1.80;1.70;;;19.10;49.20;;;;;;5018237;28;20187;-70
2023/03/16 05:57:53;;;;;;;1.48;1.38;;;19.20;49.30;;;;;;5034476;28;20203;-70
2023/03/16 06:00:20;;;;;;;1.27;1.17;;;19.10;49.20;;;;;;5035600;28;20207;-70
2023/03/16 06:02:54;;;;;;;1.40;1.30;;;19.10;49.20;;;;;;5018838;28;20193;-69
2023/03/16 06:05:23;;;;;;;1.40;1.30;;;19.10;49.20;;;;;;5033711;28;20298;-69
2023/03/16 06:07:51;;;;;;;1.30;1.20;;;19.10;49.20;;;;;;5033753;28;20298;-69
2023/03/16 06:10:17;;;;;;;1.48;1.38;;;19.20;49.30;;;;;;5033793;28;20229;-68
2023/03/16 06:12:43;;;;;;;1.42;1.33;;;19.10;49.20;;;;;;5032129;28;20188;-68
2023/03/16 06:15:10;;;;;;;1.20;1.10;;;19.20;49.20;;;;;;5014099;28;20192;-69
2023/03/16 06:17:38;;;;;;;1.55;1.45;;;19.20;49.20;;;;;;5034983;28;20238;-70
2023/03/16 06:20:09;;;;;;;1.40;1.30;;;19.20;49.20;;;;;;5017410;28;20211;-69
2023/03/16 06:22:40;;;;;;;1.40;1.30;;;19.20;49.20;;;;;;5013761;28;20195;-70
2023/03/16 06:25:08;;;;;;;1.65;1.50;;;19.20;49.20;;;;;;5034897;28;20203;-69
2023/03/16 06:27:35;;;;;;;1.65;1.55;;;19.20;49.20;;;;;;5050196;28;20181;-70
2023/03/16 06:30:12;;;;;;;1.80;1.70;;;19.20;49.20;;;;;;5018297;28;20210;-70
2023/03/16 06:32:40;;;;;;;1.65;1.55;;;19.20;49.20;;;;;;5033394;28;20285;-69
2023/03/16 06:35:08;;;;;;;1.45;1.35;;;19.20;49.20;;;;;;5017303;28;20233;-71
2023/03/16 06:37:34;;;;;;;1.35;1.25;;;19.20;49.20;;;;;;5016814;28;20187;-69
2023/03/16 06:40:08;;;;;;;1.20;1.10;;;19.20;49.20;;;;;;5017592;28;20242;-68
2023/03/16 06:42:34;;;;;;;1.27;1.20;;;19.20;49.20;;;;;;5049896;28;20195;-70
2023/03/16 06:45:01;;;;;;;1.40;1.30;;;19.20;49.20;;;;;;5033498;28;20310;-70
2023/03/16 06:47:27;;;;;;;1.52;1.38;;;19.20;49.20;;;;;;5030195;28;20179;-71
2023/03/16 06:49:54;;;;;;;1.10;1.10;;;19.30;49.30;;;;;;5007700;28;20237;-71
2023/03/16 06:52:22;;;;;;;1.67;1.40;;;19.20;49.20;;;;;;5030072;28;20197;-71
2023/03/16 06:54:48;;;;;;;1.40;1.30;;;19.30;49.20;;;;;;5006874;28;20179;-71
2023/03/16 06:57:16;;;;;;;2.08;1.35;;;19.30;49.20;;;;;;5016817;28;20265;-70
2023/03/16 06:59:42;;;;;;;1.60;1.50;;;19.30;49.20;;;;;;5033264;28;20207;-71
2023/03/16 07:02:13;;;;;;;1.50;1.40;;;19.30;49.10;;;;;;5020645;28;20186;-71
2023/03/16 07:04:40;;;;;;;2.40;1.35;;;19.30;49.10;;;;;;5004821;28;20211;-71
2023/03/16 07:07:06;;;;;;;2.03;1.80;;;19.30;49.00;;;;;;5016268;28;20553;-71
2023/03/16 07:09:33;;;;;;;1.80;1.70;;;19.40;49.10;;;;;;5016983;28;20614;-71
2023/03/16 07:11:59;;;;;;;1.92;1.75;;;19.40;49.10;;;;;;5012516;28;20179;-71
2023/03/16 07:14:25;;;;;;;2.10;1.90;;;19.40;49.10;;;;;;5011357;28;20182;-70
2023/03/16 07:16:53;;;;;;;1.90;1.67;;;19.50;49.10;;;;;;5015195;28;20194;-71
2023/03/16 07:19:21;;;;;;;2.20;1.92;;;19.50;49.10;;;;;;5032411;28;20179;-70
2023/03/16 07:21:48;;;;;;;2.45;1.70;;;19.40;49.00;;;;;;5015912;28;20192;-71
2023/03/16 07:24:16;;;;;;;2.83;1.58;;;19.40;49.00;;;;;;5032233;28;20276;-71
2023/03/16 07:26:43;;;;;;;1.63;1.52;;;19.50;49.10;;;;;;5032533;28;20183;-72
2023/03/16 07:29:11;;;;;;;2.33;1.40;;;19.50;49.10;;;;;;5016070;28;20635;-71
2023/03/16 07:31:37;;;;;;;1.60;1.50;;;19.50;49.10;;;;;;5032656;28;20214;-71
2023/03/16 07:34:08;;;;;;;1.83;1.60;;;19.50;49.10;;;;;;5016691;28;20179;-71
2023/03/16 07:36:39;;;;;;;1.95;1.73;;;19.50;49.10;;;;;;5012294;28;20307;-72
2023/03/16 07:39:05;;;;;;;1.63;1.52;;;19.50;49.00;;;;;;5014528;28;20211;-71
2023/03/16 07:41:33;;;;;;;1.55;1.45;;;19.50;49.00;;;;;;5015352;28;20250;-71
2023/03/16 07:44:13;;;;;;;1.77;1.58;;;19.60;49.10;;;;;;5016921;28;20219;-71
2023/03/16 07:46:39;;;;;;;1.83;1.70;;;19.60;49.10;;;;;;5015140;28;20186;-71
2023/03/16 07:49:05;;;;;;;2.00;1.80;;;19.60;49.10;;;;;;5023367;28;20184;-71
2023/03/16 07:51:32;;;;;;;1.83;1.52;;;19.60;49.00;;;;;;5031179;28;20237;-72
2023/03/16 07:53:57;;;;;;;1.73;1.63;;;19.60;49.00;;;;;;5015108;28;20223;-71
2023/03/16 07:56:28;;;;;;;1.95;1.80;;;19.70;49.10;;;;;;5015448;28;20225;-71
2023/03/16 07:58:57;;;;;;;1.73;1.63;;;19.70;49.00;;;;;;5015140;28;20248;-71
2023/03/16 08:01:23;;;;;;;2.20;2.00;;;19.70;49.10;;;;;;5012434;28;20211;-70
2023/03/16 08:03:49;;;;;;;2.05;1.88;;;19.70;49.10;;;;;;5030937;28;20187;-71
2023/03/16 08:06:15;;;;;;;2.20;2.00;;;19.70;49.20;;;;;;5014582;28;20180;-71
2023/03/16 08:08:41;;;;;;;2.17;1.98;;;19.70;49.00;;;;;;5014529;28;20673;-72
2023/03/16 08:11:13;;;;;;;1.95;1.63;;;19.70;49.00;;;;;;5030922;28;20210;-72
2023/03/16 08:13:53;;;;;;;1.70;1.60;;;19.70;49.00;;;;;;5016180;28;20186;-70
2023/03/16 08:16:25;;;;;;;3.42;1.70;;;19.70;49.00;;;;;;5014627;28;20172;-71
2023/03/16 08:18:55;;;;;;;2.42;1.80;;;19.70;49.10;;;;;;5014250;28;20207;-70
2023/03/16 08:21:22;;;;;;;1.92;1.75;;;19.80;49.10;;;;;;5014834;28;20238;-71
2023/03/16 08:23:49;;;;;;;1.42;1.33;;;19.80;49.10;;;;;;5014423;28;20236;-71
2023/03/16 08:26:18;;;;;;;1.90;1.70;;;19.80;49.10;;;;;;5014661;28;20176;-71
2023/03/16 08:28:46;;;;;;;2.05;1.70;;;19.80;49.10;;;;;;5014382;28;20665;-71
2023/03/16 08:31:14;;;;;;;1.42;1.33;;;19.80;49.10;;;;;;5010750;28;20331;-71
2023/03/16 08:33:55;;;;;;;1.58;1.45;;;19.80;49.10;;;;;;5030939;28;20183;-71
2023/03/16 08:36:27;;;;;;;1.90;1.40;;;19.80;49.10;;;;;;5014776;28;20179;-71
2023/03/16 08:38:54;;;;;;;3.08;1.70;;;19.80;49.10;;;;;;5014033;28;20180;-71
2023/03/16 08:41:21;;;;;;;3.05;1.70;;;19.80;49.10;;;;;;5030304;28;20207;-71
2023/03/16 08:43:48;;;;;;;1.90;1.60;;;19.90;49.20;;;;;;5014097;28;20263;-71
2023/03/16 08:46:15;;;;;;;2.05;1.33;;;19.90;49.10;;;;;;5047264;28;20195;-71
2023/03/16 08:48:55;;;;;;;3.13;1.45;;;19.90;49.00;;;;;;5013934;28;20195;-70
2023/03/16 08:51:23;;;;;;;1.50;1.40;;;19.90;49.10;;;;;;5014314;28;20219;-70
2023/03/16 08:53:49;;;;;;;2.03;1.80;;;19.90;49.70;;;;;;5013891;28;20238;-71
2023/03/16 08:56:15;;;;;;;1.73;1.60;;;19.90;49.10;;;;;;5010879;28;20180;-71
2023/03/16 08:58:44;;;;;;;2.00;1.90;;;19.90;49.10;;;;;;5026775;28;20190;-71
2023/03/16 09:01:13;;;;;;;2.00;1.58;;;19.90;49.10;;;;;;5030294;28;20204;-72
2023/03/16 09:03:44;;;;;;;1.80;1.70;;;19.90;49.10;;;;;;5013270;28;20278;-71
2023/03/16 09:06:14;;;;;;;1.85;1.75;;;19.90;49.20;;;;;;5010224;28;20293;-72
2023/03/16 09:08:40;;;;;;;1.70;1.60;;;19.90;49.20;;;;;;5026068;28;20229;-71
2023/03/16 09:11:13;;;;;;;1.67;1.58;;;19.90;49.10;;;;;;5014217;28;20207;-71
2023/03/16 09:13:41;;;;;;;2.22;1.70;;;19.90;49.20;;;;;;5013927;28;20175;-70
2023/03/16 09:16:09;;;;;;;2.20;1.63;;;19.90;49.10;;;;;;5030388;28;20274;-70
2023/03/16 09:18:35;;;;;;;1.75;1.40;;;19.90;49.10;;;;;;5013931;28;20183;-71
2023/03/16 09:21:06;;;;;;;1.40;1.30;;;19.90;49.10;;;;;;5013639;28;20245;-71
2023/03/16 09:23:36;;;;;;;2.88;1.60;;;19.90;49.10;;;;;;5010597;28;20184;-71
2023/03/16 09:26:06;;;;;;;1.58;1.48;;;19.90;49.10;;;;;;5012544;28;20225;-71
2023/03/16 09:28:34;;;;;;;1.70;1.60;;;19.90;49.20;;;;;;5013754;28;20642;-71
2023/03/16 09:31:02;;;;;;;1.60;1.42;;;19.90;49.10;;;;;;5013824;28;20199;-71
2023/03/16 09:33:30;;;;;;;2.40;1.80;;;19.90;49.10;;;;;;5013823;28;20179;-70
2023/03/16 09:35:57;;;;;;;1.98;1.80;;;19.90;49.10;;;;;;5013726;28;20238;-70
2023/03/16 09:38:27;;;;;;;1.80;1.70;;;19.90;49.00;;;;;;5013386;28;20195;-72
2023/03/16 09:41:17;;;;;;;1.95;1.65;;;19.90;49.00;;;;;;5046616;22;20226;-71
2023/03/16 09:44:14;;;;;;;2.00;1.80;;;19.90;49.10;;;;;;5050190;28;20191;-71
2023/03/16 09:46:44;;;;;;;1.60;1.50;;;19.90;49.10;;;;;;5042767;28;20203;-70
2023/03/16 09:49:16;;;;;;;2.30;1.73;;;19.90;49.00;;;;;;5032994;28;20566;-70
2023/03/16 09:51:52;;;;;;;1.55;1.45;;;19.90;49.10;;;;;;5066779;28;20206;-71
2023/03/16 09:54:44;;;;;;;1.52;1.40;;;19.90;49.10;;;;;;5036991;28;20188;-70
2023/03/16 09:57:27;;;;;;;2.15;1.30;;;19.90;49.10;;;;;;5036849;28;20185;-70
2023/03/16 10:00:00;;;;;;;1.65;1.48;;;19.90;49.00;;;;;;5053528;28;20178;-72
2023/03/16 10:02:44;;;;;;;1.38;1.27;;;19.90;49.40;;;;;;5036578;28;20724;-70
2023/03/16 10:05:19;;;;;;;1.40;1.30;;;19.90;49.00;;;;;;5049118;28;20766;-71
2023/03/16 10:08:23;;;;;;;2.25;1.42;;;19.90;49.00;;;;;;5036601;28;20186;-71
2023/03/16 10:11:19;;;;;;;1.45;1.35;;;19.90;49.00;;;;;;5030089;28;20241;-71
2023/03/16 10:14:09;;;;;;;2.22;1.58;;;19.90;48.80;;;;;;5028402;28;20281;-70
2023/03/16 10:17:10;;;;;;;1.60;1.38;;;19.90;48.90;;;;;;5036526;28;20206;-73
2023/03/16 10:19:50;;;;;;;2.55;1.80;;;19.90;48.90;;;;;;5036515;28;20317;-71
2023/03/16 10:22:25;;;;;;;1.77;1.45;;;19.90;49.10;;;;;;5036588;28;20190;-71
2023/03/16 10:25:21;;;;;;;1.58;1.30;;;19.90;48.80;;;;;;5036280;28;20205;-71
2023/03/16 10:27:48;;;;;;;1.42;1.33;;;19.90;48.90;;;;;;5035633;28;20226;-71
2023/03/16 10:30:35;;;;;;;1.88;1.40;;;19.90;48.80;;;;;;5020115;28;20209;-71
2023/03/16 10:33:17;;;;;;;3.10;1.23;;;19.90;48.90;;;;;;5027930;28;20190;-71
2023/03/16 10:36:27;;;;;;;1.35;1.25;;;19.90;48.90;;;;;;5036008;28;20182;-70
2023/03/16 10:39:10;;;;;;;1.35;1.25;;;19.90;48.80;;;;;;5039546;28;20183;-71
2023/03/16 10:41:58;;;;;;;1.73;1.50;;;20.00;49.00;;;;;;5025584;28;20217;-70
2023/03/16 10:44:27;;;;;;;1.25;1.10;;;19.90;48.80;;;;;;5035732;28;20336;-71
2023/03/16 10:47:03;;;;;;;1.65;1.55;;;19.90;48.80;;;;;;5036254;28;20193;-71
2023/03/16 10:49:40;;;;;;;1.40;1.30;;;19.90;48.80;;;;;;5035904;28;20657;-71
2023/03/16 10:52:18;;;;;;;2.15;1.45;;;19.90;48.80;;;;;;5025410;28;20341;-70
2023/03/16 10:55:00;;;;;;;1.30;1.20;;;19.90;48.80;;;;;;5040536;28;20676;-70
2023/03/16 10:57:32;;;;;;;1.38;1.27;;;19.90;48.80;;;;;;5056395;28;20214;-70
2023/03/16 11:00:19;;;;;;;1.60;1.48;;;20.00;48.90;;;;;;5036753;28;20286;-70
2023/03/16 11:02:50;;;;;;;1.23;1.08;;;19.90;48.60;;;;;;5036068;28;20189;-70
2023/03/16 11:05:28;;;;;;;1.38;1.05;;;20.00;48.80;;;;;;5042144;28;20207;-70
2023/03/16 11:08:10;;;;;;;1.92;1.35;;;19.90;48.60;;;;;;5051334;28;20182;-70
2023/03/16 11:10:59;;;;;;;2.50;1.60;;;19.90;48.70;;;;;;5052813;28;20214;-71
2023/03/16 11:13:36;;;;;;;1.63;1.30;;;19.90;48.60;;;;;;5041072;28;20183;-71
2023/03/16 11:16:32;;;;;;;2.03;1.50;;;20.00;48.70;;;;;;5035874;28;20179;-70
2023/03/16 11:19:05;;;;;;;0.90;0.90;;;20.00;48.70;;;;;;5035060;28;20203;-70
2023/03/16 11:21:50;;;;;;;1.40;1.30;;;19.90;48.70;;;;;;5046242;28;20206;-70
2023/03/16 11:24:54;;;;;;;2.53;1.50;;;20.00;48.80;;;;;;5035872;28;20297;-70
2023/03/16 11:27:40;;;;;;;1.90;1.63;;;19.90;48.80;;;;;;5052419;28;20170;-70
2023/03/16 11:30:22;;;;;;;3.60;2.80;;;19.90;48.80;;;;;;5033856;28;20209;-70
2023/03/16 11:32:52;;;;;;;4.55;3.40;;;20.00;48.60;;;;;;5041162;28;20190;-70
2023/03/16 11:36:09;;;;;;;4.93;3.67;;;19.90;48.80;;;;;;5032669;28;20194;-71
2023/03/16 11:39:09;;;;;;;5.78;4.30;;;19.90;48.60;;;;;;5024095;28;20194;-71
2023/03/16 11:42:02;;;;;;;4.32;3.72;;;20.00;48.70;;;;;;5012362;28;20270;-71
2023/03/16 11:44:37;;;;;;;5.18;3.97;;;19.90;48.20;;;;;;4995970;28;20212;-70
2023/03/16 11:47:52;;;;;;;6.32;4.60;;;19.90;48.50;;;;;;5039438;28;20252;-70
2023/03/16 11:50:32;;;;;;;5.95;4.38;;;19.90;48.40;;;;;;5037745;28;20212;-71
2023/03/16 11:53:37;;;;;;;4.90;4.32;;;20.00;48.20;;;;;;5046794;28;20186;-70
2023/03/16 11:56:27;;;;;;;5.38;4.72;;;19.90;48.10;;;;;;5045768;28;20179;-70
2023/03/16 11:59:02;;;;;;;6.30;4.32;;;19.90;48.00;;;;;;5044543;28;20214;-70
2023/03/16 12:01:46;;;;;;;5.75;4.40;;;19.90;48.00;;;;;;5021699;28;20232;-70
2023/03/16 12:04:54;;;;;;;7.55;4.25;;;19.90;48.00;;;;;;5036908;28;20191;-70
2023/03/16 12:07:41;;;;;;;6.00;4.47;;;19.90;48.00;;;;;;5021240;28;20182;-70
2023/03/16 12:10:25;;;;;;;6.10;4.35;;;19.90;47.90;;;;;;5025594;28;20215;-70
2023/03/16 12:13:15;;;;;;;5.38;4.40;;;19.90;47.80;;;;;;5035377;28;20183;-70
2023/03/16 12:15:47;;;;;;;5.10;4.18;;;19.90;48.00;;;;;;5023855;28;20248;-70
2023/03/16 12:18:22;;;;;;;4.93;4.13;;;19.90;47.90;;;;;;5041983;28;20187;-71
2023/03/16 12:21:30;;;;;;;5.30;3.80;;;19.90;48.00;;;;;;5015448;28;20206;-70
2023/03/16 12:24:02;;;;;;;5.45;4.07;;;19.90;48.00;;;;;;5039961;28;20193;-70
2023/03/16 12:26:34;;;;;;;5.38;4.32;;;19.90;47.90;;;;;;5039966;28;20202;-70
2023/03/16 12:29:27;;;;;;;5.25;4.10;;;19.90;47.70;;;;;;5048408;28;20194;-70
2023/03/16 12:32:16;;;;;;;5.32;3.97;;;19.90;48.00;;;;;;5052442;28;20198;-70
2023/03/16 12:34:55;;;;;;;5.18;3.80;;;19.90;47.70;;;;;;5030829;28;20185;-69
2023/03/16 12:37:38;;;;;;;5.10;3.55;;;19.90;47.70;;;;;;5031138;28;20275;-70
2023/03/16 12:40:30;;;;;;;5.90;3.95;;;19.90;47.60;;;;;;5031466;28;20217;-70
2023/03/16 12:43:32;;;;;;;5.05;3.90;;;19.90;47.90;;;;;;5020501;28;20213;-70
2023/03/16 12:46:12;;;;;;;3.80;3.50;;;19.90;47.70;;;;;;5064126;28;20272;-71
2023/03/16 12:48:56;;;;;;;3.55;2.72;;;19.90;47.70;;;;;;5030768;28;20189;-70
2023/03/16 12:51:37;;;;;;;4.38;3.42;;;19.90;47.60;;;;;;5034391;28;20225;-70
2023/03/16 12:54:05;;;;;;;4.63;3.03;;;19.90;47.50;;;;;;5042482;28;20197;-70
2023/03/16 12:56:43;;;;;;;3.90;3.17;;;19.90;47.20;;;;;;5050970;28;20257;-70
2023/03/16 12:59:33;;;;;;;5.30;3.22;;;19.90;47.30;;;;;;5041092;28;20228;-70
2023/03/16 13:02:02;;;;;;;3.38;3.08;;;19.90;47.20;;;;;;5047332;28;20726;-70
2023/03/16 13:04:38;;;;;;;3.70;2.47;;;19.90;47.30;;;;;;5042511;28;20246;-70
2023/03/16 13:07:15;;;;;;;4.40;2.90;;;19.90;47.30;;;;;;5040747;28;20221;-71
2023/03/16 13:09:49;;;;;;;3.58;2.70;;;19.90;47.30;;;;;;5024402;28;20244;-70
2023/03/16 13:12:37;;;;;;;3.00;2.70;;;19.90;47.40;;;;;;5025868;28;20239;-71
2023/03/16 13:15:28;;;;;;;4.30;3.35;;;19.90;48.00;;;;;;5033165;28;20186;-70
2023/03/16 13:18:19;;;;;;;3.13;2.83;;;19.90;47.40;;;;;;5014723;28;20248;-70
2023/03/16 13:21:00;;;;;;;2.83;2.58;;;19.90;47.40;;;;;;5042949;28;20268;-70